createdAt,value
2019-05-12T00:01:18.799Z,14.03
2019-05-12T00:03:51.341Z,12.00
2019-05-12T00:06:22.340Z,18.80
2019-05-12T00:08:53.770Z,12.17
2019-05-12T00:11:25.588Z,16.13
2019-05-12T00:13:58.615Z,14.13
2019-05-12T00:16:29.548Z,13.70
2019-05-12T00:19:00.590Z,11.63
2019-05-12T00:21:32.043Z,17.50
2019-05-12T00:24:11.658Z,12.10
2019-05-12T00:26:43.928Z,16.33
2019-05-12T00:29:14.694Z,13.13
2019-05-12T00:31:47.622Z,18.20
2019-05-12T00:34:18.550Z,13.17
2019-05-12T00:36:50.651Z,13.60
2019-05-12T00:39:21.718Z,18.73
2019-05-12T00:41:52.499Z,16.10
2019-05-12T00:44:23.806Z,20.90
2019-05-12T00:46:54.810Z,14.43
2019-05-12T00:49:25.851Z,16.60
2019-05-12T00:51:58.675Z,16.80
2019-05-12T00:54:29.582Z,14.40
2019-05-12T00:57:00.785Z,12.90
2019-05-12T00:59:31.853Z,15.30
2019-05-12T01:02:03.606Z,19.17
2019-05-12T01:04:34.411Z,18.83
2019-05-12T01:07:05.255Z,15.50
2019-05-12T01:09:36.038Z,22.07
2019-05-12T01:12:07.953Z,15.30
2019-05-12T01:14:38.986Z,11.87
2019-05-12T01:17:09.752Z,15.37
2019-05-12T01:19:40.957Z,16.77
2019-05-12T01:22:12.035Z,22.00
2019-05-12T01:24:43.048Z,18.00
2019-05-12T01:27:14.085Z,18.30
2019-05-12T01:29:44.872Z,17.13
2019-05-12T01:32:26.015Z,11.20
2019-05-12T01:34:57.773Z,16.40
2019-05-12T01:37:28.592Z,13.77
2019-05-12T01:40:00.082Z,18.57
2019-05-12T01:42:31.177Z,13.40
2019-05-12T01:45:02.075Z,16.63
2019-05-12T01:47:32.981Z,13.43
2019-05-12T01:50:05.691Z,18.40
2019-05-12T01:52:38.618Z,24.10
2019-05-12T01:55:09.741Z,15.30
2019-05-12T01:57:40.756Z,13.07
2019-05-12T02:00:12.251Z,14.57
2019-05-12T02:02:43.273Z,12.03
2019-05-12T02:05:14.337Z,12.17
2019-05-12T02:07:52.642Z,10.53
2019-05-12T02:10:23.755Z,13.77
2019-05-12T02:12:54.751Z,13.47
2019-05-12T02:15:27.686Z,14.90
2019-05-12T02:17:59.117Z,12.77
2019-05-12T02:20:30.174Z,13.40
2019-05-12T02:23:01.184Z,18.07
2019-05-12T02:25:32.288Z,15.80
2019-05-12T02:28:03.385Z,21.23
2019-05-12T02:30:34.156Z,14.13
2019-05-12T02:33:05.517Z,16.50
2019-05-12T02:35:36.353Z,17.83
2019-05-12T02:38:07.120Z,10.67
2019-05-12T02:40:37.917Z,17.33
2019-05-12T02:43:08.933Z,11.80
2019-05-12T02:45:39.985Z,10.87
2019-05-12T02:48:14.149Z,11.13
2019-05-12T02:50:45.192Z,12.50
2019-05-12T02:53:16.187Z,12.03
2019-05-12T02:55:48.304Z,13.07
2019-05-12T02:58:20.511Z,11.50
2019-05-12T03:00:54.755Z,13.93
2019-05-12T03:03:27.550Z,8.93
2019-05-12T03:05:59.348Z,12.40
2019-05-12T03:08:34.890Z,11.07
2019-05-12T03:11:06.218Z,11.13
2019-05-12T03:13:37.519Z,8.67
2019-05-12T03:16:08.779Z,12.63
2019-05-12T03:18:40.292Z,11.37
2019-05-12T03:21:11.154Z,11.50
2019-05-12T03:23:44.667Z,12.13
2019-05-12T03:26:15.307Z,14.37
2019-05-12T03:28:46.342Z,10.53
2019-05-12T03:31:23.601Z,17.00
2019-05-12T03:33:54.181Z,12.03
2019-05-12T03:36:32.130Z,11.13
2019-05-12T03:38:56.688Z,10.57
2019-05-12T03:41:27.459Z,11.90
2019-05-12T03:43:59.443Z,10.90
2019-05-12T03:46:30.228Z,12.60
2019-05-12T03:49:04.885Z,12.23
2019-05-12T03:51:35.178Z,14.80
2019-05-12T03:54:06.527Z,12.23
2019-05-12T03:56:37.545Z,8.97
2019-05-12T03:59:08.600Z,13.87
2019-05-12T04:01:40.223Z,10.60
2019-05-12T04:04:11.213Z,9.57
2019-05-12T04:06:45.041Z,9.80
2019-05-12T04:09:15.691Z,11.10
2019-05-12T04:11:47.215Z,10.03
2019-05-12T04:14:18.494Z,10.97
2019-05-12T04:16:49.335Z,7.77
2019-05-12T04:19:20.329Z,12.43
2019-05-12T04:21:51.177Z,12.17
2019-05-12T04:24:24.935Z,9.60
2019-05-12T04:26:55.328Z,9.47
2019-05-12T04:29:26.354Z,10.67
2019-05-12T04:31:57.663Z,16.93
2019-05-12T04:34:28.657Z,10.57
2019-05-12T04:36:59.677Z,11.77
2019-05-12T04:39:33.959Z,8.93
2019-05-12T04:42:05.311Z,11.00
2019-05-12T04:44:36.433Z,10.40
2019-05-12T04:47:08.442Z,12.73
2019-05-12T04:49:39.486Z,8.57
2019-05-12T04:52:10.269Z,10.23
2019-05-12T04:54:44.311Z,11.60
2019-05-12T04:57:14.876Z,11.90
2019-05-12T04:59:48.788Z,15.17
2019-05-12T05:02:19.559Z,13.40
2019-05-12T05:04:50.711Z,13.30
2019-05-12T05:07:24.209Z,12.00
2019-05-12T05:09:55.028Z,12.97
2019-05-12T05:12:25.947Z,11.53
2019-05-12T05:14:56.711Z,13.60
2019-05-12T05:17:27.820Z,11.57
2019-05-12T05:19:58.834Z,12.20
2019-05-12T05:22:29.685Z,10.93
2019-05-12T05:25:00.935Z,11.60
2019-05-12T05:27:34.052Z,14.00
2019-05-12T05:30:05.117Z,11.37
2019-05-12T05:32:35.965Z,12.03
2019-05-12T05:35:07.884Z,10.30
2019-05-12T05:37:41.527Z,7.83
2019-05-12T05:40:13.880Z,11.10
2019-05-12T05:42:44.149Z,12.07
2019-05-12T05:45:19.558Z,9.97
2019-05-12T05:47:49.029Z,9.70
2019-05-12T05:50:25.177Z,10.07
2019-05-12T05:52:54.261Z,10.87
2019-05-12T05:55:26.013Z,6.97
2019-05-12T05:57:59.907Z,10.57
2019-05-12T06:00:29.303Z,10.30
2019-05-12T06:03:00.094Z,9.33
2019-05-12T06:05:31.159Z,9.83
2019-05-12T06:08:04.094Z,13.13
2019-05-12T06:10:39.864Z,8.50
2019-05-12T06:13:07.419Z,9.07
2019-05-12T06:15:40.811Z,9.10
2019-05-12T06:18:13.429Z,8.57
2019-05-12T06:20:43.902Z,10.93
2019-05-12T06:23:15.240Z,8.50
2019-05-12T06:25:51.312Z,8.60
2019-05-12T06:28:18.804Z,8.67
2019-05-12T06:30:50.389Z,9.27
2019-05-12T06:33:24.801Z,6.40
2019-05-12T06:35:54.394Z,8.13
2019-05-12T06:38:25.348Z,7.53
2019-05-12T06:40:56.094Z,9.37
2019-05-12T06:43:29.043Z,10.17
2019-05-12T06:45:59.572Z,6.60
2019-05-12T06:48:33.090Z,9.77
2019-05-12T06:51:04.122Z,8.37
2019-05-12T06:53:34.864Z,9.87
2019-05-12T06:56:09.450Z,6.40
2019-05-12T06:58:38.412Z,11.07
2019-05-12T07:01:16.695Z,7.93
2019-05-12T07:03:44.033Z,7.17
2019-05-12T07:06:19.674Z,8.87
2019-05-12T07:09:01.323Z,8.27
2019-05-12T07:11:20.731Z,10.13
2019-05-12T07:14:03.995Z,7.57
2019-05-12T07:16:30.085Z,7.80
2019-05-12T07:18:56.981Z,7.30
2019-05-12T07:21:28.126Z,6.73
2019-05-12T07:24:00.542Z,11.43
2019-05-12T07:26:33.908Z,9.23
2019-05-12T07:29:04.824Z,8.47
2019-05-12T07:31:35.847Z,9.83
2019-05-12T07:34:07.879Z,14.27
2019-05-12T07:36:39.203Z,11.07
2019-05-12T07:39:10.289Z,7.10
2019-05-12T07:41:42.383Z,7.53
2019-05-12T07:44:15.042Z,5.87
2019-05-12T07:46:49.418Z,12.23
2019-05-12T07:49:22.546Z,9.87
2019-05-12T07:51:51.206Z,6.83
2019-05-12T07:54:23.606Z,12.23
2019-05-12T07:56:54.912Z,8.27
2019-05-12T07:59:34.611Z,7.90
2019-05-12T08:01:58.825Z,7.53
2019-05-12T08:04:31.740Z,7.67
2019-05-12T08:07:03.933Z,6.83
2019-05-12T08:09:36.550Z,9.43
2019-05-12T08:12:13.223Z,8.97
2019-05-12T08:14:40.224Z,7.87
2019-05-12T08:17:16.841Z,9.17
2019-05-12T08:19:44.345Z,9.30
2019-05-12T08:22:18.842Z,6.23
2019-05-12T08:24:48.336Z,12.43
2019-05-12T08:27:19.389Z,10.70
2019-05-12T08:29:52.431Z,11.67
2019-05-12T08:32:23.444Z,10.17
2019-05-12T08:34:55.329Z,10.00
2019-05-12T08:37:26.237Z,9.87
2019-05-12T08:40:03.154Z,8.23
2019-05-12T08:42:30.021Z,9.57
2019-05-12T08:45:03.892Z,9.33
2019-05-12T08:47:38.667Z,8.30
2019-05-12T08:50:06.659Z,8.80
2019-05-12T08:52:41.315Z,9.80
2019-05-12T08:55:10.000Z,7.53
2019-05-12T08:57:49.241Z,11.80
2019-05-12T09:00:14.734Z,8.57
2019-05-12T09:02:50.447Z,9.73
2019-05-12T09:05:18.452Z,8.80
2019-05-12T09:07:49.511Z,10.57
2019-05-12T09:10:20.284Z,8.53
2019-05-12T09:12:51.109Z,10.80
2019-05-12T09:15:23.949Z,11.27
2019-05-12T09:17:57.062Z,7.17
2019-05-12T09:20:27.513Z,7.67
2019-05-12T09:23:00.794Z,10.00
2019-05-12T09:25:33.841Z,11.53
2019-05-12T09:28:04.805Z,7.63
2019-05-12T09:30:40.098Z,8.07
2019-05-12T09:33:08.068Z,5.93
2019-05-12T09:35:39.427Z,10.40
2019-05-12T09:38:11.364Z,7.77
2019-05-12T09:40:43.785Z,12.37
2019-05-12T09:43:14.834Z,8.87
2019-05-12T09:45:52.104Z,7.17
2019-05-12T09:48:18.065Z,7.07
2019-05-12T09:50:51.486Z,8.40
2019-05-12T09:53:23.698Z,7.90
2019-05-12T09:55:58.521Z,7.57
2019-05-12T09:58:28.357Z,7.40
2019-05-12T10:00:59.539Z,10.23
2019-05-12T10:03:35.536Z,9.37
2019-05-12T10:06:03.736Z,6.63
2019-05-12T10:08:35.719Z,6.93
2019-05-12T10:11:10.347Z,7.83
2019-05-12T10:13:40.035Z,6.70
2019-05-12T10:16:13.312Z,10.63
2019-05-12T10:18:51.279Z,6.57
2019-05-12T10:21:17.607Z,8.13
2019-05-12T10:23:51.482Z,7.27
2019-05-12T10:26:22.076Z,7.30
2019-05-12T10:28:58.130Z,8.13
2019-05-12T10:31:29.667Z,8.70
2019-05-12T10:34:16.786Z,4.50
2019-05-12T10:36:49.127Z,5.47
2019-05-12T10:39:20.178Z,7.53
2019-05-12T10:41:51.052Z,6.70
2019-05-12T10:44:22.038Z,5.37
2019-05-12T10:46:55.562Z,5.53
2019-05-12T10:49:26.329Z,5.53
2019-05-12T10:51:57.581Z,7.20
2019-05-12T10:54:28.434Z,7.13
2019-05-12T10:56:59.221Z,6.03
2019-05-12T10:59:33.121Z,6.00
2019-05-12T11:02:03.514Z,4.80
2019-05-12T11:04:38.891Z,4.63
2019-05-12T11:07:07.332Z,9.53
2019-05-12T11:09:38.114Z,7.03
2019-05-12T11:12:09.233Z,4.37
2019-05-12T11:14:40.242Z,4.87
2019-05-12T11:17:13.625Z,8.03
2019-05-12T11:19:47.196Z,8.80
2019-05-12T11:22:19.311Z,5.43
2019-05-12T11:24:52.745Z,6.03
2019-05-12T11:27:24.021Z,5.10
2019-05-12T11:29:54.929Z,7.50
2019-05-12T11:32:28.957Z,5.73
2019-05-12T11:34:58.158Z,6.43
2019-05-12T11:37:29.927Z,9.67
2019-05-12T11:40:00.939Z,10.00
2019-05-12T11:42:33.576Z,5.07
2019-05-12T11:45:04.760Z,7.40
2019-05-12T11:47:37.357Z,9.07
2019-05-12T11:50:10.023Z,6.20
2019-05-12T11:52:41.082Z,4.80
2019-05-12T11:55:13.483Z,5.50
2019-05-12T11:57:44.532Z,6.53
2019-05-12T12:00:18.257Z,10.10
2019-05-12T12:02:49.372Z,7.37
2019-05-12T12:05:20.200Z,5.13
2019-05-12T12:07:52.934Z,6.03
2019-05-12T12:10:23.962Z,4.70
2019-05-12T12:12:54.969Z,8.47
2019-05-12T12:15:30.157Z,6.17
2019-05-12T12:18:03.972Z,4.27
2019-05-12T12:20:33.520Z,5.00
2019-05-12T12:23:10.807Z,5.77
2019-05-12T12:25:36.025Z,4.40
2019-05-12T12:28:06.861Z,9.30
2019-05-12T12:30:37.703Z,8.17
2019-05-12T12:33:08.950Z,3.30
2019-05-12T12:35:40.924Z,6.70
2019-05-12T12:38:14.139Z,3.23
2019-05-12T12:40:44.395Z,4.73
2019-05-12T12:43:15.457Z,5.20
2019-05-12T12:46:01.086Z,3.80
2019-05-12T12:48:33.361Z,7.80
2019-05-12T12:51:04.514Z,4.20
2019-05-12T12:53:35.620Z,5.63
2019-05-12T12:56:06.631Z,4.53
2019-05-12T12:58:37.634Z,5.73
2019-05-12T13:01:15.729Z,4.03
2019-05-12T13:03:43.411Z,7.43
2019-05-12T13:06:16.916Z,5.73
2019-05-12T13:08:46.764Z,4.77
2019-05-12T13:11:32.148Z,7.77
2019-05-12T13:13:50.426Z,5.83
2019-05-12T13:16:21.249Z,6.63
2019-05-12T13:18:53.839Z,6.60
2019-05-12T13:21:25.038Z,6.23
2019-05-12T13:23:57.274Z,6.00
2019-05-12T13:26:28.035Z,5.57
2019-05-12T13:28:58.801Z,4.27
2019-05-12T13:31:29.567Z,4.87
2019-05-12T13:34:03.627Z,3.80
2019-05-12T13:36:37.470Z,3.50
2019-05-12T13:39:11.562Z,5.63
2019-05-12T13:41:39.994Z,4.57
2019-05-12T13:44:13.486Z,6.57
2019-05-12T13:46:48.543Z,5.03
2019-05-12T13:49:15.942Z,4.27
2019-05-12T13:51:48.453Z,5.13
2019-05-12T13:54:20.244Z,7.73
2019-05-12T13:56:53.496Z,6.60
2019-05-12T13:59:25.513Z,4.47
2019-05-12T14:01:56.418Z,8.83
2019-05-12T14:04:28.029Z,6.77
2019-05-12T14:07:00.227Z,5.17
2019-05-12T14:09:31.266Z,6.30
2019-05-12T14:12:04.345Z,5.63
2019-05-12T14:14:34.994Z,4.27
2019-05-12T14:17:05.760Z,4.27
2019-05-12T14:19:37.307Z,3.23
2019-05-12T14:22:15.493Z,4.60
2019-05-12T14:24:44.429Z,6.20
2019-05-12T14:27:18.991Z,6.17
2019-05-12T14:29:47.229Z,4.43
2019-05-12T14:32:19.236Z,3.63
2019-05-12T14:34:51.084Z,5.50
2019-05-12T14:37:24.307Z,3.03
2019-05-12T14:39:55.246Z,5.73
2019-05-12T14:42:34.871Z,3.70
2019-05-12T14:44:59.720Z,3.03
2019-05-12T14:47:30.948Z,3.17
2019-05-12T14:50:03.965Z,3.17
2019-05-12T14:52:34.913Z,3.67
2019-05-12T14:55:06.173Z,4.73
2019-05-12T14:57:39.284Z,4.43
2019-05-12T15:00:11.223Z,3.37
2019-05-12T15:02:43.838Z,4.43
2019-05-12T15:05:15.834Z,4.10
2019-05-12T15:07:57.395Z,4.23
2019-05-12T15:10:19.397Z,1.97
2019-05-12T15:12:50.657Z,3.03
2019-05-12T15:15:21.657Z,3.47
2019-05-12T15:17:55.057Z,4.97
2019-05-12T15:20:25.429Z,3.50
2019-05-12T15:22:56.421Z,3.40
2019-05-12T15:25:29.279Z,3.00
2019-05-12T15:28:00.245Z,2.60
2019-05-12T15:30:33.592Z,3.50
2019-05-12T15:33:04.661Z,4.77
2019-05-12T15:35:35.394Z,3.07
2019-05-12T15:38:09.440Z,3.17
2019-05-12T15:40:38.774Z,3.73
2019-05-12T15:43:09.788Z,2.70
2019-05-12T15:45:43.482Z,3.60
2019-05-12T15:48:14.508Z,3.53
2019-05-12T15:50:46.130Z,3.43
2019-05-12T15:53:22.081Z,5.20
2019-05-12T15:55:50.196Z,4.00
2019-05-12T15:58:21.186Z,4.70
2019-05-12T16:00:54.489Z,2.73
2019-05-12T16:03:26.590Z,4.33
2019-05-12T16:06:01.240Z,5.17
2019-05-12T16:08:30.043Z,3.63
2019-05-12T16:11:01.071Z,3.67
2019-05-12T16:13:33.792Z,2.40
2019-05-12T16:16:06.674Z,2.97
2019-05-12T16:18:40.432Z,4.23
2019-05-12T16:21:09.678Z,3.23
2019-05-12T16:23:40.621Z,2.37
2019-05-12T16:26:14.690Z,4.67
2019-05-12T16:28:44.443Z,3.13
2019-05-12T16:31:15.285Z,2.50
2019-05-12T16:33:46.043Z,3.40
2019-05-12T16:36:16.863Z,2.87
2019-05-12T16:38:50.088Z,3.23
2019-05-12T16:41:28.011Z,3.97
2019-05-12T16:43:53.783Z,4.67
2019-05-12T16:46:25.058Z,4.87
2019-05-12T16:48:57.016Z,2.87
2019-05-12T16:51:29.350Z,4.13
2019-05-12T16:54:00.350Z,4.00
2019-05-12T16:56:33.769Z,3.63
2019-05-12T16:59:07.206Z,5.10
2019-05-12T17:01:36.922Z,4.83
2019-05-12T17:04:07.922Z,3.93
2019-05-12T17:06:39.060Z,6.60
2019-05-12T17:09:10.066Z,2.43
2019-05-12T17:11:47.323Z,3.17
2019-05-12T17:14:13.455Z,2.07
2019-05-12T17:16:46.736Z,3.10
2019-05-12T17:19:16.963Z,3.70
2019-05-12T17:21:49.477Z,2.33
2019-05-12T17:24:20.770Z,3.43
2019-05-12T17:26:52.798Z,2.60
2019-05-12T17:29:24.374Z,3.27
2019-05-12T17:31:55.640Z,3.60
2019-05-12T17:34:27.249Z,5.60
2019-05-12T17:37:00.550Z,1.93
2019-05-12T17:39:35.799Z,4.50
2019-05-12T17:42:04.018Z,3.10
2019-05-12T17:44:36.975Z,2.43
2019-05-12T17:47:12.884Z,2.10
2019-05-12T17:49:40.217Z,4.13
2019-05-12T17:52:15.827Z,4.40
2019-05-12T17:54:44.300Z,2.27
2019-05-12T17:57:19.757Z,4.83
2019-05-12T17:59:48.574Z,2.23
2019-05-12T18:02:19.666Z,2.30
2019-05-12T18:04:53.362Z,4.87
2019-05-12T18:07:23.796Z,2.20
2019-05-12T18:09:56.727Z,1.97
2019-05-12T18:12:39.538Z,1.80
2019-05-12T18:14:59.713Z,4.77
2019-05-12T18:17:30.493Z,2.40
2019-05-12T18:20:03.904Z,2.70
2019-05-12T18:22:34.122Z,2.30
2019-05-12T18:25:05.218Z,2.13
2019-05-12T18:27:47.946Z,2.50
2019-05-12T18:30:08.889Z,1.90
2019-05-12T18:32:40.140Z,1.77
2019-05-12T18:35:13.407Z,4.23
2019-05-12T18:37:43.723Z,2.77
2019-05-12T18:40:14.966Z,3.10
2019-05-12T18:42:45.988Z,2.83
2019-05-12T18:45:18.325Z,2.00
2019-05-12T18:47:49.113Z,1.97
2019-05-12T18:50:27.206Z,1.67
2019-05-12T18:52:53.345Z,1.87
2019-05-12T18:55:29.343Z,3.83
2019-05-12T18:57:57.289Z,2.87
2019-05-12T19:00:28.033Z,2.73
2019-05-12T19:02:59.590Z,2.57
2019-05-12T19:05:31.683Z,3.43
2019-05-12T19:08:03.660Z,1.97
2019-05-12T19:10:38.674Z,2.67
2019-05-12T19:13:07.644Z,2.63
2019-05-12T19:15:38.508Z,1.77
2019-05-12T19:18:09.407Z,1.60
2019-05-12T19:20:40.483Z,2.33
2019-05-12T19:23:13.614Z,3.57
2019-05-12T19:25:44.490Z,4.17
2019-05-12T19:28:15.505Z,2.33
2019-05-12T19:30:46.565Z,5.67
2019-05-12T19:33:17.333Z,3.90
2019-05-12T19:35:50.337Z,2.00
2019-05-12T19:38:21.120Z,4.70
2019-05-12T19:40:58.787Z,2.03
2019-05-12T19:43:24.821Z,2.93
2019-05-12T19:46:03.064Z,2.23
2019-05-12T19:48:35.111Z,5.53
2019-05-12T19:51:19.950Z,3.17
2019-05-12T19:53:35.790Z,2.67
2019-05-12T19:56:06.540Z,4.07
2019-05-12T19:58:37.311Z,2.80
2019-05-12T20:01:09.657Z,5.70
2019-05-12T20:03:43.951Z,3.70
2019-05-12T20:06:14.606Z,1.60
2019-05-12T20:08:45.683Z,1.80
2019-05-12T20:11:20.094Z,2.47
2019-05-12T20:13:49.950Z,2.07
2019-05-12T20:16:23.172Z,2.07
2019-05-12T20:18:57.658Z,5.90
2019-05-12T20:21:28.312Z,3.23
2019-05-12T20:23:58.471Z,4.20
2019-05-12T20:26:32.992Z,3.73
2019-05-12T20:29:04.591Z,2.87
2019-05-12T20:31:43.504Z,2.23
2019-05-12T20:34:10.962Z,4.93
2019-05-12T20:36:40.089Z,3.37
2019-05-12T20:39:17.039Z,4.10
2019-05-12T20:41:43.568Z,3.13
2019-05-12T20:44:17.005Z,1.87
2019-05-12T20:46:47.014Z,2.27
2019-05-12T20:49:20.347Z,4.57
2019-05-12T20:51:55.243Z,5.27
2019-05-12T20:54:23.963Z,2.97
2019-05-12T20:57:02.446Z,2.47
2019-05-12T20:59:28.508Z,2.77
2019-05-12T21:01:59.449Z,2.90
2019-05-12T21:04:31.918Z,2.23
2019-05-12T21:07:04.546Z,2.43
2019-05-12T21:09:35.370Z,2.50
2019-05-12T21:12:06.192Z,4.47
2019-05-12T21:14:42.547Z,1.80
2019-05-12T21:17:14.561Z,3.40
2019-05-12T21:19:55.519Z,3.77
2019-05-12T21:22:15.482Z,3.23
2019-05-12T21:24:46.409Z,1.80
2019-05-12T21:27:19.866Z,2.87
2019-05-12T21:29:49.780Z,4.90
2019-05-12T21:32:20.822Z,3.03
2019-05-12T21:34:52.210Z,2.70
2019-05-12T21:37:25.424Z,2.00
2019-05-12T21:39:56.661Z,4.80
2019-05-12T21:42:27.455Z,3.13
2019-05-12T21:44:58.220Z,5.60
2019-05-12T21:47:34.015Z,2.80
2019-05-12T21:50:03.539Z,3.17
2019-05-12T21:52:38.985Z,4.43
2019-05-12T21:55:13.581Z,3.67
2019-05-12T21:57:40.044Z,3.23
2019-05-12T22:00:20.149Z,4.10
2019-05-12T22:02:53.401Z,3.53
2019-05-12T22:05:47.025Z,3.50
2019-05-12T22:07:58.960Z,2.57
2019-05-12T22:10:30.697Z,2.17
2019-05-12T22:13:07.367Z,2.37
2019-05-12T22:15:34.657Z,3.13
2019-05-12T22:18:06.068Z,3.83
2019-05-12T22:20:36.995Z,1.80
2019-05-12T22:23:11.898Z,3.80
2019-05-12T22:25:40.526Z,1.87
2019-05-12T22:28:13.505Z,6.03
2019-05-12T22:30:44.051Z,2.60
2019-05-12T22:33:15.470Z,3.90
2019-05-12T22:35:46.212Z,2.67
2019-05-12T22:38:21.118Z,2.70
2019-05-12T22:40:56.064Z,2.80
2019-05-12T22:43:23.755Z,5.30
2019-05-12T22:45:54.972Z,3.87
2019-05-12T22:48:29.700Z,2.33
2019-05-12T22:50:58.712Z,2.17
2019-05-12T22:53:30.273Z,3.77
2019-05-12T22:56:03.002Z,3.90
2019-05-12T22:58:34.266Z,3.57
2019-05-12T23:01:05.831Z,2.67
2019-05-12T23:03:36.875Z,3.33
2019-05-12T23:06:21.122Z,2.97
2019-05-12T23:08:47.145Z,4.53
2019-05-12T23:11:15.382Z,2.73
2019-05-12T23:13:46.360Z,2.30
2019-05-12T23:16:19.187Z,3.97
2019-05-12T23:18:49.949Z,5.10
2019-05-12T23:21:20.710Z,2.07
2019-05-12T23:23:57.530Z,2.13
2019-05-12T23:26:24.618Z,3.13
2019-05-12T23:28:55.605Z,3.23
2019-05-12T23:31:30.217Z,4.43
2019-05-12T23:33:59.069Z,4.27
2019-05-12T23:36:36.521Z,5.47
2019-05-12T23:39:04.764Z,2.97
2019-05-12T23:41:34.905Z,2.20
2019-05-12T23:44:06.224Z,5.57
2019-05-12T23:46:36.988Z,2.87
2019-05-12T23:49:07.747Z,2.43
2019-05-12T23:51:39.959Z,2.63
2019-05-12T23:54:11.024Z,3.60
2019-05-12T23:56:43.884Z,3.30
2019-05-12T23:59:14.259Z,3.77
